sensor_id;sensor_type;location;lat;lon;timestamp;P1;durP1;ratioP1;P2;durP2;ratioP2
3549;SDS011;45572;48.804;8.330;2023-05-18T00:01:40;8.52;;;4.97;;
3549;SDS011;45572;48.804;8.330;2023-05-18T00:04:08;6.60;;;4.53;;
3549;SDS011;45572;48.804;8.330;2023-05-18T00:06:37;6.90;;;4.18;;
3549;SDS011;45572;48.804;8.330;2023-05-18T00:09:05;10.75;;;4.88;;
3549;SDS011;45572;48.804;8.330;2023-05-18T00:11:33;7.63;;;4.45;;
3549;SDS011;45572;48.804;8.330;2023-05-18T00:14:04;9.00;;;5.18;;
3549;SDS011;45572;48.804;8.330;2023-05-18T00:16:33;8.27;;;4.50;;
3549;SDS011;45572;48.804;8.330;2023-05-18T00:19:01;7.28;;;4.38;;
3549;SDS011;45572;48.804;8.330;2023-05-18T00:21:29;8.93;;;5.53;;
3549;SDS011;45572;48.804;8.330;2023-05-18T00:24:00;6.72;;;4.47;;
3549;SDS011;45572;48.804;8.330;2023-05-18T00:26:28;7.85;;;4.47;;
3549;SDS011;45572;48.804;8.330;2023-05-18T00:28:56;9.50;;;4.53;;
3549;SDS011;45572;48.804;8.330;2023-05-18T00:31:24;6.38;;;4.28;;
3549;SDS011;45572;48.804;8.330;2023-05-18T00:33:52;11.55;;;4.93;;
3549;SDS011;45572;48.804;8.330;2023-05-18T00:36:19;6.63;;;4.43;;
3549;SDS011;45572;48.804;8.330;2023-05-18T00:38:47;7.72;;;5.40;;
3549;SDS011;45572;48.804;8.330;2023-05-18T00:41:16;7.28;;;4.80;;
3549;SDS011;45572;48.804;8.330;2023-05-18T00:43:44;7.90;;;4.93;;
3549;SDS011;45572;48.804;8.330;2023-05-18T00:46:12;7.60;;;4.47;;
3549;SDS011;45572;48.804;8.330;2023-05-18T00:48:40;6.28;;;4.85;;
3549;SDS011;45572;48.804;8.330;2023-05-18T00:51:08;8.00;;;4.88;;
3549;SDS011;45572;48.804;8.330;2023-05-18T00:53:36;9.23;;;4.80;;
3549;SDS011;45572;48.804;8.330;2023-05-18T00:56:05;8.20;;;4.00;;
3549;SDS011;45572;48.804;8.330;2023-05-18T00:58:35;8.88;;;4.68;;
3549;SDS011;45572;48.804;8.330;2023-05-18T01:01:03;10.10;;;5.22;;
3549;SDS011;45572;48.804;8.330;2023-05-18T01:03:31;9.98;;;5.35;;
3549;SDS011;45572;48.804;8.330;2023-05-18T01:05:59;11.50;;;4.78;;
3549;SDS011;45572;48.804;8.330;2023-05-18T01:08:31;8.23;;;5.15;;
3549;SDS011;45572;48.804;8.330;2023-05-18T01:11:01;7.70;;;4.22;;
3549;SDS011;45572;48.804;8.330;2023-05-18T01:13:41;7.40;;;4.70;;
3549;SDS011;45572;48.804;8.330;2023-05-18T01:16:17;9.32;;;5.20;;
3549;SDS011;45572;48.804;8.330;2023-05-18T01:18:53;10.52;;;4.90;;
3549;SDS011;45572;48.804;8.330;2023-05-18T01:21:31;10.50;;;4.88;;
3549;SDS011;45572;48.804;8.330;2023-05-18T01:24:16;9.05;;;5.60;;
3549;SDS011;45572;48.804;8.330;2023-05-18T01:26:52;5.00;;;4.10;;
3549;SDS011;45572;48.804;8.330;2023-05-18T01:29:24;10.43;;;5.43;;
3549;SDS011;45572;48.804;8.330;2023-05-18T01:31:52;8.90;;;4.95;;
3549;SDS011;45572;48.804;8.330;2023-05-18T01:34:20;6.88;;;4.50;;
3549;SDS011;45572;48.804;8.330;2023-05-18T01:36:49;7.13;;;4.28;;
3549;SDS011;45572;48.804;8.330;2023-05-18T01:39:17;6.40;;;3.83;;
3549;SDS011;45572;48.804;8.330;2023-05-18T01:41:47;7.75;;;4.82;;
3549;SDS011;45572;48.804;8.330;2023-05-18T01:44:23;7.72;;;5.18;;
3549;SDS011;45572;48.804;8.330;2023-05-18T01:46:56;8.50;;;5.40;;
3549;SDS011;45572;48.804;8.330;2023-05-18T01:49:29;7.10;;;4.40;;
3549;SDS011;45572;48.804;8.330;2023-05-18T01:52:00;6.93;;;4.55;;
3549;SDS011;45572;48.804;8.330;2023-05-18T01:54:32;6.80;;;4.72;;
3549;SDS011;45572;48.804;8.330;2023-05-18T01:57:05;6.15;;;4.00;;
3549;SDS011;45572;48.804;8.330;2023-05-18T01:59:37;13.88;;;3.92;;
3549;SDS011;45572;48.804;8.330;2023-05-18T02:02:05;4.93;;;3.70;;
3549;SDS011;45572;48.804;8.330;2023-05-18T02:04:34;7.05;;;4.18;;
3549;SDS011;45572;48.804;8.330;2023-05-18T02:07:03;5.93;;;4.03;;
3549;SDS011;45572;48.804;8.330;2023-05-18T02:09:30;12.10;;;5.40;;
3549;SDS011;45572;48.804;8.330;2023-05-18T02:11:58;7.68;;;4.22;;
3549;SDS011;45572;48.804;8.330;2023-05-18T02:14:28;6.82;;;4.35;;
3549;SDS011;45572;48.804;8.330;2023-05-18T02:16:56;5.75;;;4.55;;
3549;SDS011;45572;48.804;8.330;2023-05-18T02:19:24;5.97;;;4.32;;
3549;SDS011;45572;48.804;8.330;2023-05-18T02:21:52;6.75;;;4.57;;
3549;SDS011;45572;48.804;8.330;2023-05-18T02:24:20;8.05;;;5.05;;
3549;SDS011;45572;48.804;8.330;2023-05-18T02:26:48;6.00;;;4.78;;
3549;SDS011;45572;48.804;8.330;2023-05-18T02:29:18;5.65;;;4.13;;
3549;SDS011;45572;48.804;8.330;2023-05-18T02:31:47;6.82;;;4.78;;
3549;SDS011;45572;48.804;8.330;2023-05-18T02:34:15;6.32;;;4.10;;
3549;SDS011;45572;48.804;8.330;2023-05-18T02:36:44;8.45;;;4.65;;
3549;SDS011;45572;48.804;8.330;2023-05-18T02:39:13;9.40;;;5.53;;
3549;SDS011;45572;48.804;8.330;2023-05-18T02:41:42;6.78;;;4.25;;
3549;SDS011;45572;48.804;8.330;2023-05-18T02:44:10;8.50;;;4.85;;
3549;SDS011;45572;48.804;8.330;2023-05-18T02:46:38;6.93;;;3.90;;
3549;SDS011;45572;48.804;8.330;2023-05-18T02:49:07;10.02;;;5.10;;
3549;SDS011;45572;48.804;8.330;2023-05-18T02:51:35;7.22;;;4.88;;
3549;SDS011;45572;48.804;8.330;2023-05-18T02:54:03;10.15;;;4.97;;
3549;SDS011;45572;48.804;8.330;2023-05-18T02:56:33;10.27;;;5.13;;
3549;SDS011;45572;48.804;8.330;2023-05-18T02:59:09;13.65;;;5.57;;
3549;SDS011;45572;48.804;8.330;2023-05-18T03:01:41;10.35;;;5.40;;
3549;SDS011;45572;48.804;8.330;2023-05-18T03:04:12;8.18;;;4.55;;
3549;SDS011;45572;48.804;8.330;2023-05-18T03:06:46;6.25;;;5.00;;
3549;SDS011;45572;48.804;8.330;2023-05-18T03:09:18;10.48;;;5.15;;
3549;SDS011;45572;48.804;8.330;2023-05-18T03:11:47;16.15;;;5.20;;
3549;SDS011;45572;48.804;8.330;2023-05-18T03:14:16;8.00;;;4.80;;
3549;SDS011;45572;48.804;8.330;2023-05-18T03:16:44;10.68;;;5.28;;
3549;SDS011;45572;48.804;8.330;2023-05-18T03:19:15;9.45;;;5.03;;
3549;SDS011;45572;48.804;8.330;2023-05-18T03:21:43;7.13;;;4.93;;
3549;SDS011;45572;48.804;8.330;2023-05-18T03:24:14;7.10;;;4.18;;
3549;SDS011;45572;48.804;8.330;2023-05-18T03:26:46;9.02;;;4.68;;
3549;SDS011;45572;48.804;8.330;2023-05-18T03:29:14;6.38;;;4.22;;
3549;SDS011;45572;48.804;8.330;2023-05-18T03:31:42;13.57;;;5.22;;
3549;SDS011;45572;48.804;8.330;2023-05-18T03:34:11;10.32;;;5.20;;
3549;SDS011;45572;48.804;8.330;2023-05-18T03:36:41;7.15;;;4.32;;
3549;SDS011;45572;48.804;8.330;2023-05-18T03:39:12;9.07;;;4.97;;
3549;SDS011;45572;48.804;8.330;2023-05-18T03:41:41;9.93;;;5.13;;
3549;SDS011;45572;48.804;8.330;2023-05-18T03:44:08;7.95;;;5.18;;
3549;SDS011;45572;48.804;8.330;2023-05-18T03:46:36;9.52;;;5.10;;
3549;SDS011;45572;48.804;8.330;2023-05-18T03:49:04;10.35;;;5.35;;
3549;SDS011;45572;48.804;8.330;2023-05-18T03:51:37;9.40;;;5.80;;
3549;SDS011;45572;48.804;8.330;2023-05-18T03:54:06;10.27;;;5.40;;
3549;SDS011;45572;48.804;8.330;2023-05-18T03:56:34;12.07;;;4.95;;
3549;SDS011;45572;48.804;8.330;2023-05-18T03:59:02;12.85;;;5.60;;
3549;SDS011;45572;48.804;8.330;2023-05-18T04:01:31;15.27;;;5.60;;
3549;SDS011;45572;48.804;8.330;2023-05-18T04:04:00;11.80;;;5.10;;
3549;SDS011;45572;48.804;8.330;2023-05-18T04:06:28;8.45;;;4.90;;
3549;SDS011;45572;48.804;8.330;2023-05-18T04:08:56;13.10;;;4.72;;
3549;SDS011;45572;48.804;8.330;2023-05-18T04:11:29;7.13;;;4.45;;
3549;SDS011;45572;48.804;8.330;2023-05-18T04:13:56;6.45;;;4.50;;
3549;SDS011;45572;48.804;8.330;2023-05-18T04:16:25;10.05;;;5.05;;
3549;SDS011;45572;48.804;8.330;2023-05-18T04:18:53;12.00;;;5.53;;
3549;SDS011;45572;48.804;8.330;2023-05-18T04:21:21;8.13;;;4.57;;
3549;SDS011;45572;48.804;8.330;2023-05-18T04:23:49;10.40;;;4.65;;
3549;SDS011;45572;48.804;8.330;2023-05-18T04:26:17;13.27;;;5.30;;
3549;SDS011;45572;48.804;8.330;2023-05-18T04:28:47;12.07;;;5.60;;
3549;SDS011;45572;48.804;8.330;2023-05-18T04:31:15;7.72;;;4.90;;
3549;SDS011;45572;48.804;8.330;2023-05-18T04:33:43;6.15;;;4.63;;
3549;SDS011;45572;48.804;8.330;2023-05-18T04:36:11;13.43;;;6.13;;
3549;SDS011;45572;48.804;8.330;2023-05-18T04:38:40;8.65;;;3.90;;
3549;SDS011;45572;48.804;8.330;2023-05-18T04:41:08;8.20;;;5.22;;
3549;SDS011;45572;48.804;8.330;2023-05-18T04:43:38;6.88;;;4.90;;
3549;SDS011;45572;48.804;8.330;2023-05-18T04:46:08;9.88;;;4.95;;
3549;SDS011;45572;48.804;8.330;2023-05-18T04:48:36;6.95;;;4.55;;
3549;SDS011;45572;48.804;8.330;2023-05-18T04:51:04;10.90;;;4.88;;
3549;SDS011;45572;48.804;8.330;2023-05-18T04:53:32;7.78;;;4.85;;
3549;SDS011;45572;48.804;8.330;2023-05-18T04:56:00;9.10;;;4.63;;
3549;SDS011;45572;48.804;8.330;2023-05-18T04:58:28;9.32;;;5.45;;
3549;SDS011;45572;48.804;8.330;2023-05-18T05:00:56;7.20;;;4.85;;
3549;SDS011;45572;48.804;8.330;2023-05-18T05:03:25;7.68;;;3.78;;
3549;SDS011;45572;48.804;8.330;2023-05-18T05:05:53;7.30;;;5.20;;
3549;SDS011;45572;48.804;8.330;2023-05-18T05:08:22;13.05;;;5.20;;
3549;SDS011;45572;48.804;8.330;2023-05-18T05:10:50;9.88;;;5.50;;
3549;SDS011;45572;48.804;8.330;2023-05-18T05:13:18;10.40;;;5.03;;
3549;SDS011;45572;48.804;8.330;2023-05-18T05:15:46;9.18;;;5.68;;
3549;SDS011;45572;48.804;8.330;2023-05-18T05:18:13;9.77;;;6.47;;
3549;SDS011;45572;48.804;8.330;2023-05-18T05:20:43;16.98;;;8.30;;
3549;SDS011;45572;48.804;8.330;2023-05-18T05:23:10;10.98;;;7.03;;
3549;SDS011;45572;48.804;8.330;2023-05-18T05:25:41;15.35;;;6.90;;
3549;SDS011;45572;48.804;8.330;2023-05-18T05:28:08;11.80;;;6.68;;
3549;SDS011;45572;48.804;8.330;2023-05-18T05:30:36;17.73;;;7.65;;
3549;SDS011;45572;48.804;8.330;2023-05-18T05:33:07;9.20;;;6.53;;
3549;SDS011;45572;48.804;8.330;2023-05-18T05:35:37;11.48;;;6.13;;
3549;SDS011;45572;48.804;8.330;2023-05-18T05:38:08;10.48;;;6.97;;
3549;SDS011;45572;48.804;8.330;2023-05-18T05:40:36;11.35;;;7.75;;
3549;SDS011;45572;48.804;8.330;2023-05-18T05:43:04;12.57;;;6.15;;
3549;SDS011;45572;48.804;8.330;2023-05-18T05:45:32;12.02;;;6.50;;
3549;SDS011;45572;48.804;8.330;2023-05-18T05:48:03;10.48;;;6.40;;
3549;SDS011;45572;48.804;8.330;2023-05-18T05:50:33;11.23;;;6.65;;
3549;SDS011;45572;48.804;8.330;2023-05-18T05:53:02;10.65;;;6.80;;
3549;SDS011;45572;48.804;8.330;2023-05-18T05:55:35;10.00;;;4.50;;
3549;SDS011;45572;48.804;8.330;2023-05-18T05:58:11;15.77;;;4.88;;
3549;SDS011;45572;48.804;8.330;2023-05-18T06:00:42;6.95;;;3.78;;
3549;SDS011;45572;48.804;8.330;2023-05-18T06:03:13;10.60;;;3.22;;
3549;SDS011;45572;48.804;8.330;2023-05-18T06:05:43;5.63;;;2.83;;
3549;SDS011;45572;48.804;8.330;2023-05-18T06:08:13;9.52;;;2.83;;
3549;SDS011;45572;48.804;8.330;2023-05-18T06:10:43;5.95;;;3.40;;
3549;SDS011;45572;48.804;8.330;2023-05-18T06:13:11;7.70;;;3.33;;
3549;SDS011;45572;48.804;8.330;2023-05-18T06:15:49;9.43;;;3.15;;
3549;SDS011;45572;48.804;8.330;2023-05-18T06:18:18;9.97;;;3.23;;
3549;SDS011;45572;48.804;8.330;2023-05-18T06:20:47;9.30;;;2.50;;
3549;SDS011;45572;48.804;8.330;2023-05-18T06:23:18;9.50;;;2.83;;
3549;SDS011;45572;48.804;8.330;2023-05-18T06:26:07;6.53;;;2.57;;
3549;SDS011;45572;48.804;8.330;2023-05-18T06:28:56;6.37;;;2.73;;
3549;SDS011;45572;48.804;8.330;2023-05-18T06:31:30;7.17;;;2.80;;
3549;SDS011;45572;48.804;8.330;2023-05-18T06:34:08;8.80;;;2.80;;
3549;SDS011;45572;48.804;8.330;2023-05-18T06:36:40;6.33;;;2.47;;
3549;SDS011;45572;48.804;8.330;2023-05-18T06:39:08;10.00;;;2.60;;
3549;SDS011;45572;48.804;8.330;2023-05-18T06:41:37;6.40;;;2.63;;
3549;SDS011;45572;48.804;8.330;2023-05-18T06:44:06;9.23;;;2.73;;
3549;SDS011;45572;48.804;8.330;2023-05-18T06:46:34;6.93;;;1.97;;
3549;SDS011;45572;48.804;8.330;2023-05-18T06:49:12;6.83;;;2.40;;
3549;SDS011;45572;48.804;8.330;2023-05-18T06:51:40;8.63;;;1.97;;
3549;SDS011;45572;48.804;8.330;2023-05-18T06:54:08;10.00;;;2.70;;
3549;SDS011;45572;48.804;8.330;2023-05-18T06:56:37;7.13;;;2.47;;
3549;SDS011;45572;48.804;8.330;2023-05-18T06:59:05;5.67;;;2.30;;
3549;SDS011;45572;48.804;8.330;2023-05-18T07:01:33;7.07;;;2.00;;
3549;SDS011;45572;48.804;8.330;2023-05-18T07:04:02;8.07;;;2.50;;
3549;SDS011;45572;48.804;8.330;2023-05-18T07:06:30;6.33;;;2.47;;
3549;SDS011;45572;48.804;8.330;2023-05-18T07:08:58;5.97;;;2.40;;
3549;SDS011;45572;48.804;8.330;2023-05-18T07:11:26;10.17;;;2.10;;
3549;SDS011;45572;48.804;8.330;2023-05-18T07:13:56;3.97;;;1.63;;
3549;SDS011;45572;48.804;8.330;2023-05-18T07:16:24;7.33;;;2.73;;
3549;SDS011;45572;48.804;8.330;2023-05-18T07:18:53;5.67;;;2.03;;
3549;SDS011;45572;48.804;8.330;2023-05-18T07:21:25;8.73;;;2.33;;
3549;SDS011;45572;48.804;8.330;2023-05-18T07:23:53;12.43;;;2.33;;
3549;SDS011;45572;48.804;8.330;2023-05-18T07:26:22;5.10;;;2.17;;
3549;SDS011;45572;48.804;8.330;2023-05-18T07:28:52;5.67;;;2.33;;
3549;SDS011;45572;48.804;8.330;2023-05-18T07:31:21;6.70;;;2.53;;
3549;SDS011;45572;48.804;8.330;2023-05-18T07:33:54;9.07;;;2.70;;
3549;SDS011;45572;48.804;8.330;2023-05-18T07:36:22;5.57;;;1.97;;
3549;SDS011;45572;48.804;8.330;2023-05-18T07:38:51;4.40;;;2.20;;
3549;SDS011;45572;48.804;8.330;2023-05-18T07:41:25;5.40;;;2.20;;
3549;SDS011;45572;48.804;8.330;2023-05-18T07:43:55;9.20;;;3.50;;
3549;SDS011;45572;48.804;8.330;2023-05-18T07:46:30;6.37;;;2.40;;
3549;SDS011;45572;48.804;8.330;2023-05-18T07:48:58;6.10;;;2.10;;
3549;SDS011;45572;48.804;8.330;2023-05-18T07:51:26;6.53;;;1.97;;
3549;SDS011;45572;48.804;8.330;2023-05-18T07:53:54;8.73;;;2.27;;
3549;SDS011;45572;48.804;8.330;2023-05-18T07:56:22;12.03;;;2.83;;
3549;SDS011;45572;48.804;8.330;2023-05-18T07:58:51;4.73;;;2.00;;
3549;SDS011;45572;48.804;8.330;2023-05-18T08:01:20;6.30;;;2.60;;
3549;SDS011;45572;48.804;8.330;2023-05-18T08:03:54;6.37;;;2.40;;
3549;SDS011;45572;48.804;8.330;2023-05-18T08:06:24;6.40;;;2.70;;
3549;SDS011;45572;48.804;8.330;2023-05-18T08:08:52;8.37;;;2.30;;
3549;SDS011;45572;48.804;8.330;2023-05-18T08:11:21;7.37;;;2.77;;
3549;SDS011;45572;48.804;8.330;2023-05-18T08:13:49;6.00;;;2.00;;
3549;SDS011;45572;48.804;8.330;2023-05-18T08:16:17;3.50;;;2.00;;
3549;SDS011;45572;48.804;8.330;2023-05-18T08:18:45;5.40;;;2.03;;
3549;SDS011;45572;48.804;8.330;2023-05-18T08:21:14;5.77;;;3.20;;
3549;SDS011;45572;48.804;8.330;2023-05-18T08:23:43;9.03;;;3.00;;
3549;SDS011;45572;48.804;8.330;2023-05-18T08:26:10;6.70;;;2.60;;
3549;SDS011;45572;48.804;8.330;2023-05-18T08:28:39;4.10;;;1.87;;
3549;SDS011;45572;48.804;8.330;2023-05-18T08:31:07;5.70;;;2.40;;
3549;SDS011;45572;48.804;8.330;2023-05-18T08:33:35;6.43;;;2.57;;
3549;SDS011;45572;48.804;8.330;2023-05-18T08:36:03;8.13;;;2.07;;
3549;SDS011;45572;48.804;8.330;2023-05-18T08:38:33;5.70;;;2.10;;
3549;SDS011;45572;48.804;8.330;2023-05-18T08:41:01;6.50;;;2.30;;
3549;SDS011;45572;48.804;8.330;2023-05-18T08:43:39;5.63;;;2.33;;
3549;SDS011;45572;48.804;8.330;2023-05-18T08:46:12;5.33;;;2.73;;
3549;SDS011;45572;48.804;8.330;2023-05-18T08:48:48;9.13;;;2.60;;
3549;SDS011;45572;48.804;8.330;2023-05-18T08:51:20;5.93;;;3.13;;
3549;SDS011;45572;48.804;8.330;2023-05-18T08:53:52;9.37;;;2.10;;
3549;SDS011;45572;48.804;8.330;2023-05-18T08:56:22;3.87;;;2.07;;
3549;SDS011;45572;48.804;8.330;2023-05-18T08:58:53;6.10;;;2.30;;
3549;SDS011;45572;48.804;8.330;2023-05-18T09:01:23;12.07;;;2.87;;
3549;SDS011;45572;48.804;8.330;2023-05-18T09:03:56;10.90;;;3.20;;
3549;SDS011;45572;48.804;8.330;2023-05-18T09:06:25;5.50;;;2.37;;
3549;SDS011;45572;48.804;8.330;2023-05-18T09:08:57;5.87;;;2.67;;
3549;SDS011;45572;48.804;8.330;2023-05-18T09:11:33;6.90;;;3.60;;
3549;SDS011;45572;48.804;8.330;2023-05-18T09:14:01;7.97;;;2.47;;
3549;SDS011;45572;48.804;8.330;2023-05-18T09:16:31;8.23;;;3.77;;
3549;SDS011;45572;48.804;8.330;2023-05-18T09:19:01;10.23;;;3.27;;
3549;SDS011;45572;48.804;8.330;2023-05-18T09:21:32;7.50;;;3.60;;
3549;SDS011;45572;48.804;8.330;2023-05-18T09:24:02;5.73;;;2.43;;
3549;SDS011;45572;48.804;8.330;2023-05-18T09:26:32;4.80;;;2.57;;
3549;SDS011;45572;48.804;8.330;2023-05-18T09:29:01;8.83;;;2.60;;
3549;SDS011;45572;48.804;8.330;2023-05-18T09:31:41;8.93;;;2.80;;
3549;SDS011;45572;48.804;8.330;2023-05-18T09:34:12;5.47;;;3.10;;
3549;SDS011;45572;48.804;8.330;2023-05-18T09:36:40;3.73;;;2.33;;
3549;SDS011;45572;48.804;8.330;2023-05-18T09:39:14;6.90;;;3.20;;
3549;SDS011;45572;48.804;8.330;2023-05-18T09:41:43;9.50;;;4.03;;
3549;SDS011;45572;48.804;8.330;2023-05-18T09:44:13;10.07;;;3.13;;
3549;SDS011;45572;48.804;8.330;2023-05-18T09:46:42;6.63;;;3.20;;
3549;SDS011;45572;48.804;8.330;2023-05-18T09:49:10;4.07;;;2.60;;
3549;SDS011;45572;48.804;8.330;2023-05-18T09:51:38;13.13;;;3.23;;
3549;SDS011;45572;48.804;8.330;2023-05-18T09:54:06;9.20;;;3.60;;
3549;SDS011;45572;48.804;8.330;2023-05-18T09:56:37;6.67;;;3.30;;
3549;SDS011;45572;48.804;8.330;2023-05-18T09:59:09;7.37;;;3.50;;
3549;SDS011;45572;48.804;8.330;2023-05-18T10:01:40;6.97;;;3.27;;
3549;SDS011;45572;48.804;8.330;2023-05-18T10:04:22;7.30;;;3.60;;
3549;SDS011;45572;48.804;8.330;2023-05-18T10:07:07;13.47;;;3.83;;
3549;SDS011;45572;48.804;8.330;2023-05-18T10:09:38;12.13;;;3.17;;
3549;SDS011;45572;48.804;8.330;2023-05-18T10:12:10;11.73;;;3.17;;
3549;SDS011;45572;48.804;8.330;2023-05-18T10:14:41;6.60;;;2.83;;
3549;SDS011;45572;48.804;8.330;2023-05-18T10:17:12;5.00;;;3.03;;
3549;SDS011;45572;48.804;8.330;2023-05-18T10:19:43;9.90;;;3.10;;
3549;SDS011;45572;48.804;8.330;2023-05-18T10:22:12;6.37;;;2.87;;
3549;SDS011;45572;48.804;8.330;2023-05-18T10:24:45;6.70;;;3.60;;
3549;SDS011;45572;48.804;8.330;2023-05-18T10:27:19;6.40;;;2.93;;
3549;SDS011;45572;48.804;8.330;2023-05-18T10:29:50;6.80;;;2.50;;
3549;SDS011;45572;48.804;8.330;2023-05-18T10:32:19;6.90;;;2.43;;
3549;SDS011;45572;48.804;8.330;2023-05-18T10:34:51;6.30;;;3.33;;
3549;SDS011;45572;48.804;8.330;2023-05-18T10:37:20;7.43;;;2.73;;
3549;SDS011;45572;48.804;8.330;2023-05-18T10:39:49;6.10;;;3.50;;
3549;SDS011;45572;48.804;8.330;2023-05-18T10:42:19;3.83;;;2.17;;
3549;SDS011;45572;48.804;8.330;2023-05-18T10:44:48;9.70;;;3.00;;
3549;SDS011;45572;48.804;8.330;2023-05-18T10:47:19;10.80;;;2.90;;
3549;SDS011;45572;48.804;8.330;2023-05-18T10:49:48;11.53;;;2.97;;
3549;SDS011;45572;48.804;8.330;2023-05-18T10:52:16;6.27;;;2.50;;
3549;SDS011;45572;48.804;8.330;2023-05-18T10:54:46;5.33;;;2.40;;
3549;SDS011;45572;48.804;8.330;2023-05-18T10:57:14;5.03;;;2.30;;
3549;SDS011;45572;48.804;8.330;2023-05-18T10:59:46;6.33;;;2.97;;
3549;SDS011;45572;48.804;8.330;2023-05-18T11:02:15;9.77;;;3.23;;
3549;SDS011;45572;48.804;8.330;2023-05-18T11:04:45;5.87;;;2.20;;
3549;SDS011;45572;48.804;8.330;2023-05-18T11:07:16;7.67;;;3.40;;
3549;SDS011;45572;48.804;8.330;2023-05-18T11:09:46;4.63;;;2.60;;
3549;SDS011;45572;48.804;8.330;2023-05-18T11:12:15;4.90;;;2.67;;
3549;SDS011;45572;48.804;8.330;2023-05-18T11:14:48;6.97;;;2.70;;
3549;SDS011;45572;48.804;8.330;2023-05-18T11:17:17;6.20;;;2.57;;
3549;SDS011;45572;48.804;8.330;2023-05-18T11:22:46;7.97;;;2.80;;
3549;SDS011;45572;48.804;8.330;2023-05-18T11:28:09;9.70;;;3.07;;
3549;SDS011;45572;48.804;8.330;2023-05-18T11:30:44;8.63;;;2.67;;
3549;SDS011;45572;48.804;8.330;2023-05-18T11:33:15;8.90;;;2.90;;
3549;SDS011;45572;48.804;8.330;2023-05-18T11:35:55;6.23;;;2.00;;
3549;SDS011;45572;48.804;8.330;2023-05-18T11:38:28;7.53;;;2.40;;
3549;SDS011;45572;48.804;8.330;2023-05-18T11:43:57;9.17;;;2.73;;
3549;SDS011;45572;48.804;8.330;2023-05-18T11:46:51;6.10;;;2.53;;
3549;SDS011;45572;48.804;8.330;2023-05-18T11:49:22;8.70;;;3.90;;
3549;SDS011;45572;48.804;8.330;2023-05-18T11:51:55;10.60;;;2.53;;
3549;SDS011;45572;48.804;8.330;2023-05-18T11:54:24;6.80;;;2.43;;
3549;SDS011;45572;48.804;8.330;2023-05-18T11:56:52;6.00;;;2.43;;
3549;SDS011;45572;48.804;8.330;2023-05-18T12:02:05;6.43;;;2.57;;
3549;SDS011;45572;48.804;8.330;2023-05-18T12:04:44;4.30;;;2.27;;
3549;SDS011;45572;48.804;8.330;2023-05-18T12:07:13;6.47;;;1.93;;
3549;SDS011;45572;48.804;8.330;2023-05-18T12:09:42;7.00;;;2.50;;
3549;SDS011;45572;48.804;8.330;2023-05-18T12:12:13;7.27;;;2.67;;
3549;SDS011;45572;48.804;8.330;2023-05-18T12:14:47;5.90;;;2.53;;
3549;SDS011;45572;48.804;8.330;2023-05-18T12:17:21;6.40;;;2.60;;
3549;SDS011;45572;48.804;8.330;2023-05-18T12:19:49;7.03;;;2.93;;
3549;SDS011;45572;48.804;8.330;2023-05-18T12:22:17;6.90;;;2.30;;
3549;SDS011;45572;48.804;8.330;2023-05-18T12:24:45;6.33;;;2.67;;
3549;SDS011;45572;48.804;8.330;2023-05-18T12:27:13;4.73;;;2.50;;
3549;SDS011;45572;48.804;8.330;2023-05-18T12:29:41;5.83;;;2.03;;
3549;SDS011;45572;48.804;8.330;2023-05-18T12:32:10;7.70;;;2.57;;
3549;SDS011;45572;48.804;8.330;2023-05-18T12:34:40;7.53;;;2.47;;
3549;SDS011;45572;48.804;8.330;2023-05-18T12:37:11;6.43;;;2.30;;
3549;SDS011;45572;48.804;8.330;2023-05-18T12:39:40;9.13;;;2.67;;
3549;SDS011;45572;48.804;8.330;2023-05-18T12:42:09;9.13;;;2.40;;
3549;SDS011;45572;48.804;8.330;2023-05-18T12:44:38;6.63;;;2.37;;
3549;SDS011;45572;48.804;8.330;2023-05-18T12:47:11;5.07;;;2.50;;
3549;SDS011;45572;48.804;8.330;2023-05-18T12:49:46;5.07;;;2.20;;
3549;SDS011;45572;48.804;8.330;2023-05-18T12:52:16;6.13;;;2.50;;
3549;SDS011;45572;48.804;8.330;2023-05-18T12:54:48;7.20;;;2.63;;
3549;SDS011;45572;48.804;8.330;2023-05-18T12:57:20;5.00;;;2.17;;
3549;SDS011;45572;48.804;8.330;2023-05-18T12:59:53;9.90;;;3.20;;
3549;SDS011;45572;48.804;8.330;2023-05-18T13:02:29;7.87;;;2.70;;
3549;SDS011;45572;48.804;8.330;2023-05-18T13:05:01;8.97;;;2.73;;
3549;SDS011;45572;48.804;8.330;2023-05-18T13:07:30;9.77;;;2.80;;
3549;SDS011;45572;48.804;8.330;2023-05-18T13:09:59;5.93;;;2.60;;
3549;SDS011;45572;48.804;8.330;2023-05-18T13:12:37;4.53;;;2.30;;
3549;SDS011;45572;48.804;8.330;2023-05-18T13:15:08;8.20;;;3.27;;
3549;SDS011;45572;48.804;8.330;2023-05-18T13:17:46;9.30;;;2.60;;
3549;SDS011;45572;48.804;8.330;2023-05-18T13:20:23;7.33;;;2.33;;
3549;SDS011;45572;48.804;8.330;2023-05-18T13:22:57;5.77;;;2.63;;
3549;SDS011;45572;48.804;8.330;2023-05-18T13:25:28;6.00;;;2.90;;
3549;SDS011;45572;48.804;8.330;2023-05-18T13:27:56;6.80;;;3.00;;
3549;SDS011;45572;48.804;8.330;2023-05-18T13:30:23;5.63;;;2.10;;
3549;SDS011;45572;48.804;8.330;2023-05-18T13:32:52;9.07;;;3.33;;
3549;SDS011;45572;48.804;8.330;2023-05-18T13:35:20;7.00;;;2.43;;
3549;SDS011;45572;48.804;8.330;2023-05-18T13:37:51;9.10;;;3.20;;
3549;SDS011;45572;48.804;8.330;2023-05-18T13:40:19;5.33;;;2.27;;
3549;SDS011;45572;48.804;8.330;2023-05-18T13:42:50;9.23;;;2.77;;
3549;SDS011;45572;48.804;8.330;2023-05-18T13:45:18;7.90;;;2.50;;
3549;SDS011;45572;48.804;8.330;2023-05-18T13:47:47;5.87;;;2.23;;
3549;SDS011;45572;48.804;8.330;2023-05-18T13:50:16;4.97;;;2.40;;
3549;SDS011;45572;48.804;8.330;2023-05-18T13:52:46;6.17;;;2.77;;
3549;SDS011;45572;48.804;8.330;2023-05-18T13:55:14;8.73;;;2.53;;
3549;SDS011;45572;48.804;8.330;2023-05-18T13:57:44;7.07;;;2.40;;
3549;SDS011;45572;48.804;8.330;2023-05-18T14:00:12;7.23;;;2.33;;
3549;SDS011;45572;48.804;8.330;2023-05-18T14:02:42;5.70;;;2.10;;
3549;SDS011;45572;48.804;8.330;2023-05-18T14:05:12;8.00;;;2.67;;
3549;SDS011;45572;48.804;8.330;2023-05-18T14:07:41;11.03;;;2.47;;
3549;SDS011;45572;48.804;8.330;2023-05-18T14:10:11;5.90;;;2.80;;
3549;SDS011;45572;48.804;8.330;2023-05-18T14:12:39;6.33;;;3.17;;
3549;SDS011;45572;48.804;8.330;2023-05-18T14:15:08;9.83;;;2.83;;
3549;SDS011;45572;48.804;8.330;2023-05-18T14:17:38;9.30;;;2.90;;
3549;SDS011;45572;48.804;8.330;2023-05-18T14:20:07;6.00;;;2.20;;
3549;SDS011;45572;48.804;8.330;2023-05-18T14:22:35;7.70;;;3.30;;
3549;SDS011;45572;48.804;8.330;2023-05-18T14:25:03;7.37;;;2.80;;
3549;SDS011;45572;48.804;8.330;2023-05-18T14:27:33;7.30;;;2.70;;
3549;SDS011;45572;48.804;8.330;2023-05-18T14:30:01;5.87;;;2.03;;
3549;SDS011;45572;48.804;8.330;2023-05-18T14:32:28;7.80;;;2.93;;
3549;SDS011;45572;48.804;8.330;2023-05-18T14:34:56;5.83;;;1.80;;
3549;SDS011;45572;48.804;8.330;2023-05-18T14:37:24;5.90;;;2.47;;
3549;SDS011;45572;48.804;8.330;2023-05-18T14:39:52;5.60;;;2.10;;
3549;SDS011;45572;48.804;8.330;2023-05-18T14:42:20;4.20;;;1.87;;
3549;SDS011;45572;48.804;8.330;2023-05-18T14:44:49;3.70;;;1.80;;
3549;SDS011;45572;48.804;8.330;2023-05-18T14:47:17;5.87;;;2.40;;
3549;SDS011;45572;48.804;8.330;2023-05-18T14:49:51;7.10;;;2.53;;
3549;SDS011;45572;48.804;8.330;2023-05-18T14:52:19;6.93;;;2.57;;
3549;SDS011;45572;48.804;8.330;2023-05-18T14:54:48;5.80;;;2.63;;
3549;SDS011;45572;48.804;8.330;2023-05-18T14:57:16;8.83;;;3.07;;
3549;SDS011;45572;48.804;8.330;2023-05-18T14:59:46;6.70;;;2.50;;
3549;SDS011;45572;48.804;8.330;2023-05-18T15:02:16;3.67;;;2.43;;
3549;SDS011;45572;48.804;8.330;2023-05-18T15:04:44;7.50;;;2.80;;
3549;SDS011;45572;48.804;8.330;2023-05-18T15:07:12;7.33;;;2.77;;
3549;SDS011;45572;48.804;8.330;2023-05-18T15:09:39;6.17;;;2.10;;
3549;SDS011;45572;48.804;8.330;2023-05-18T15:12:07;6.10;;;2.30;;
3549;SDS011;45572;48.804;8.330;2023-05-18T15:14:35;10.50;;;2.07;;
3549;SDS011;45572;48.804;8.330;2023-05-18T15:17:04;6.33;;;2.27;;
3549;SDS011;45572;48.804;8.330;2023-05-18T15:19:36;10.63;;;2.33;;
3549;SDS011;45572;48.804;8.330;2023-05-18T15:22:05;4.80;;;1.50;;
3549;SDS011;45572;48.804;8.330;2023-05-18T15:24:33;3.33;;;1.80;;
3549;SDS011;45572;48.804;8.330;2023-05-18T15:27:02;6.63;;;2.67;;